sensor_id;sensor_type;location;lat;lon;timestamp;temperature;humidity
23377;DHT22;14353;46.070;13.222;2023-04-03T00:01:00;21.70;44.10
23377;DHT22;14353;46.070;13.222;2023-04-03T00:03:26;21.80;44.20
23377;DHT22;14353;46.070;13.222;2023-04-03T00:05:52;21.80;44.20
23377;DHT22;14353;46.070;13.222;2023-04-03T00:08:18;21.70;44.20
23377;DHT22;14353;46.070;13.222;2023-04-03T00:10:44;21.70;44.20
23377;DHT22;14353;46.070;13.222;2023-04-03T00:13:10;21.70;44.20
23377;DHT22;14353;46.070;13.222;2023-04-03T00:15:36;21.70;44.20
23377;DHT22;14353;46.070;13.222;2023-04-03T00:18:04;21.70;44.20
23377;DHT22;14353;46.070;13.222;2023-04-03T00:20:30;21.70;44.20
23377;DHT22;14353;46.070;13.222;2023-04-03T00:22:56;21.70;44.20
23377;DHT22;14353;46.070;13.222;2023-04-03T00:25:22;21.70;44.30
23377;DHT22;14353;46.070;13.222;2023-04-03T00:27:47;21.70;44.30
23377;DHT22;14353;46.070;13.222;2023-04-03T00:30:15;21.70;44.30
23377;DHT22;14353;46.070;13.222;2023-04-03T00:32:41;21.70;44.30
23377;DHT22;14353;46.070;13.222;2023-04-03T00:35:07;21.70;44.30
23377;DHT22;14353;46.070;13.222;2023-04-03T00:37:33;21.70;44.30
23377;DHT22;14353;46.070;13.222;2023-04-03T00:39:59;21.70;44.30
23377;DHT22;14353;46.070;13.222;2023-04-03T00:42:25;21.60;44.30
23377;DHT22;14353;46.070;13.222;2023-04-03T00:47:23;21.60;44.30
23377;DHT22;14353;46.070;13.222;2023-04-03T00:49:50;21.60;44.40
23377;DHT22;14353;46.070;13.222;2023-04-03T00:52:20;21.60;44.30
23377;DHT22;14353;46.070;13.222;2023-04-03T00:54:47;21.60;44.40
23377;DHT22;14353;46.070;13.222;2023-04-03T00:57:14;21.60;44.40
23377;DHT22;14353;46.070;13.222;2023-04-03T00:59:45;21.60;44.40
23377;DHT22;14353;46.070;13.222;2023-04-03T01:02:11;21.60;44.40
23377;DHT22;14353;46.070;13.222;2023-04-03T01:04:39;21.60;44.40
23377;DHT22;14353;46.070;13.222;2023-04-03T01:07:15;21.60;44.40
23377;DHT22;14353;46.070;13.222;2023-04-03T01:09:42;21.60;44.40
23377;DHT22;14353;46.070;13.222;2023-04-03T01:14:47;21.60;44.40
23377;DHT22;14353;46.070;13.222;2023-04-03T01:25:41;21.50;44.50
23377;DHT22;14353;46.070;13.222;2023-04-03T01:28:10;21.50;44.40
23377;DHT22;14353;46.070;13.222;2023-04-03T01:33:26;21.50;44.50
23377;DHT22;14353;46.070;13.222;2023-04-03T01:35:52;21.50;44.50
23377;DHT22;14353;46.070;13.222;2023-04-03T01:38:17;21.50;44.50
23377;DHT22;14353;46.070;13.222;2023-04-03T01:40:43;21.50;44.50
23377;DHT22;14353;46.070;13.222;2023-04-03T01:43:09;21.50;44.60
23377;DHT22;14353;46.070;13.222;2023-04-03T01:45:34;21.50;44.50
23377;DHT22;14353;46.070;13.222;2023-04-03T01:48:00;21.50;44.50
23377;DHT22;14353;46.070;13.222;2023-04-03T01:50:26;21.50;44.50
23377;DHT22;14353;46.070;13.222;2023-04-03T01:52:52;21.50;44.60
23377;DHT22;14353;46.070;13.222;2023-04-03T01:55:17;21.40;44.50
23377;DHT22;14353;46.070;13.222;2023-04-03T01:57:43;21.40;44.60
23377;DHT22;14353;46.070;13.222;2023-04-03T02:00:09;21.50;44.60
23377;DHT22;14353;46.070;13.222;2023-04-03T02:02:35;21.50;44.70
23377;DHT22;14353;46.070;13.222;2023-04-03T02:05:01;21.50;44.60
23377;DHT22;14353;46.070;13.222;2023-04-03T02:07:26;21.40;44.60
23377;DHT22;14353;46.070;13.222;2023-04-03T02:09:52;21.50;44.60
23377;DHT22;14353;46.070;13.222;2023-04-03T02:12:18;21.40;44.60
23377;DHT22;14353;46.070;13.222;2023-04-03T02:14:44;21.40;44.60
23377;DHT22;14353;46.070;13.222;2023-04-03T02:17:09;21.40;44.60
23377;DHT22;14353;46.070;13.222;2023-04-03T02:19:35;21.40;44.60
23377;DHT22;14353;46.070;13.222;2023-04-03T02:22:02;21.40;44.60
23377;DHT22;14353;46.070;13.222;2023-04-03T02:24:28;21.40;44.60
23377;DHT22;14353;46.070;13.222;2023-04-03T02:26:54;21.40;44.60
23377;DHT22;14353;46.070;13.222;2023-04-03T02:29:20;21.40;44.60
23377;DHT22;14353;46.070;13.222;2023-04-03T02:31:45;21.40;44.60
23377;DHT22;14353;46.070;13.222;2023-04-03T02:34:11;21.40;44.60
23377;DHT22;14353;46.070;13.222;2023-04-03T02:36:37;21.40;44.60
23377;DHT22;14353;46.070;13.222;2023-04-03T02:39:03;21.40;44.60
23377;DHT22;14353;46.070;13.222;2023-04-03T02:41:29;21.40;44.60
23377;DHT22;14353;46.070;13.222;2023-04-03T02:44:01;21.40;44.60
23377;DHT22;14353;46.070;13.222;2023-04-03T02:46:27;21.40;44.60
23377;DHT22;14353;46.070;13.222;2023-04-03T02:48:52;21.40;44.60
23377;DHT22;14353;46.070;13.222;2023-04-03T02:51:18;21.40;44.60
23377;DHT22;14353;46.070;13.222;2023-04-03T02:53:44;21.30;44.60
23377;DHT22;14353;46.070;13.222;2023-04-03T02:56:09;21.30;44.60
23377;DHT22;14353;46.070;13.222;2023-04-03T02:58:35;21.30;44.60
23377;DHT22;14353;46.070;13.222;2023-04-03T03:01:01;21.30;44.60
23377;DHT22;14353;46.070;13.222;2023-04-03T03:03:27;21.30;44.60
23377;DHT22;14353;46.070;13.222;2023-04-03T03:06:04;21.30;44.60
23377;DHT22;14353;46.070;13.222;2023-04-03T03:08:29;21.30;44.60
23377;DHT22;14353;46.070;13.222;2023-04-03T03:10:55;21.30;44.60
23377;DHT22;14353;46.070;13.222;2023-04-03T03:13:21;21.30;44.60
23377;DHT22;14353;46.070;13.222;2023-04-03T03:15:47;21.30;44.60
23377;DHT22;14353;46.070;13.222;2023-04-03T03:18:12;21.30;44.60
23377;DHT22;14353;46.070;13.222;2023-04-03T03:20:38;21.30;44.60
23377;DHT22;14353;46.070;13.222;2023-04-03T03:23:04;21.30;44.60
23377;DHT22;14353;46.070;13.222;2023-04-03T03:25:29;21.30;44.60
23377;DHT22;14353;46.070;13.222;2023-04-03T03:27:55;21.30;44.60
23377;DHT22;14353;46.070;13.222;2023-04-03T03:30:21;21.30;44.60
23377;DHT22;14353;46.070;13.222;2023-04-03T03:32:46;21.30;44.60
23377;DHT22;14353;46.070;13.222;2023-04-03T03:35:12;21.30;44.60
23377;DHT22;14353;46.070;13.222;2023-04-03T03:37:37;21.30;44.60
23377;DHT22;14353;46.070;13.222;2023-04-03T03:40:03;21.20;44.60
23377;DHT22;14353;46.070;13.222;2023-04-03T03:42:29;21.30;44.70
23377;DHT22;14353;46.070;13.222;2023-04-03T03:44:55;21.20;44.60
23377;DHT22;14353;46.070;13.222;2023-04-03T03:47:21;21.20;44.60
23377;DHT22;14353;46.070;13.222;2023-04-03T03:49:46;21.20;44.60
23377;DHT22;14353;46.070;13.222;2023-04-03T03:52:12;21.20;44.60
23377;DHT22;14353;46.070;13.222;2023-04-03T03:54:38;21.20;44.70
23377;DHT22;14353;46.070;13.222;2023-04-03T03:57:04;21.20;44.60
23377;DHT22;14353;46.070;13.222;2023-04-03T03:59:30;21.20;44.60
23377;DHT22;14353;46.070;13.222;2023-04-03T04:01:56;21.20;44.70
23377;DHT22;14353;46.070;13.222;2023-04-03T04:04:22;21.20;44.60
23377;DHT22;14353;46.070;13.222;2023-04-03T04:06:47;21.20;44.60
23377;DHT22;14353;46.070;13.222;2023-04-03T04:09:13;21.20;44.60
23377;DHT22;14353;46.070;13.222;2023-04-03T04:11:39;21.20;44.60
23377;DHT22;14353;46.070;13.222;2023-04-03T04:14:06;21.20;44.60
23377;DHT22;14353;46.070;13.222;2023-04-03T04:16:32;21.20;44.60
23377;DHT22;14353;46.070;13.222;2023-04-03T04:18:58;21.20;44.60
23377;DHT22;14353;46.070;13.222;2023-04-03T04:21:24;21.20;44.60
23377;DHT22;14353;46.070;13.222;2023-04-03T04:23:49;21.20;44.60
23377;DHT22;14353;46.070;13.222;2023-04-03T04:26:15;21.20;44.60
23377;DHT22;14353;46.070;13.222;2023-04-03T04:28:41;21.20;44.60
23377;DHT22;14353;46.070;13.222;2023-04-03T04:31:06;21.20;44.60
23377;DHT22;14353;46.070;13.222;2023-04-03T04:33:32;21.20;44.60
23377;DHT22;14353;46.070;13.222;2023-04-03T04:35:58;21.20;44.60
23377;DHT22;14353;46.070;13.222;2023-04-03T04:38:24;21.10;44.60
23377;DHT22;14353;46.070;13.222;2023-04-03T04:40:50;21.10;44.60
23377;DHT22;14353;46.070;13.222;2023-04-03T04:43:16;21.20;44.60
23377;DHT22;14353;46.070;13.222;2023-04-03T04:45:42;21.10;45.20
23377;DHT22;14353;46.070;13.222;2023-04-03T04:48:08;21.10;44.60
23377;DHT22;14353;46.070;13.222;2023-04-03T04:50:33;21.10;44.60
23377;DHT22;14353;46.070;13.222;2023-04-03T04:52:59;21.10;44.60
23377;DHT22;14353;46.070;13.222;2023-04-03T04:55:25;21.10;44.60
23377;DHT22;14353;46.070;13.222;2023-04-03T04:57:51;21.10;44.60
23377;DHT22;14353;46.070;13.222;2023-04-03T05:00:17;21.10;44.60
23377;DHT22;14353;46.070;13.222;2023-04-03T05:02:43;21.10;44.60
23377;DHT22;14353;46.070;13.222;2023-04-03T05:05:09;21.10;45.20
23377;DHT22;14353;46.070;13.222;2023-04-03T05:07:34;21.10;45.20
23377;DHT22;14353;46.070;13.222;2023-04-03T05:10:01;21.10;44.60
23377;DHT22;14353;46.070;13.222;2023-04-03T05:12:28;21.10;44.50
23377;DHT22;14353;46.070;13.222;2023-04-03T05:14:54;21.10;44.50
23377;DHT22;14353;46.070;13.222;2023-04-03T05:17:19;21.10;44.50
23377;DHT22;14353;46.070;13.222;2023-04-03T05:19:45;21.10;44.50
23377;DHT22;14353;46.070;13.222;2023-04-03T05:22:11;21.10;44.50
23377;DHT22;14353;46.070;13.222;2023-04-03T05:24:37;21.10;44.50
23377;DHT22;14353;46.070;13.222;2023-04-03T05:27:03;21.10;44.50
23377;DHT22;14353;46.070;13.222;2023-04-03T05:29:28;21.10;44.20
23377;DHT22;14353;46.070;13.222;2023-04-03T05:31:54;21.00;44.00
23377;DHT22;14353;46.070;13.222;2023-04-03T05:34:21;21.00;44.00
23377;DHT22;14353;46.070;13.222;2023-04-03T05:36:46;20.90;43.80
23377;DHT22;14353;46.070;13.222;2023-04-03T05:39:12;20.90;43.70
23377;DHT22;14353;46.070;13.222;2023-04-03T05:41:38;20.90;43.20
23377;DHT22;14353;46.070;13.222;2023-04-03T05:44:03;20.90;43.20
23377;DHT22;14353;46.070;13.222;2023-04-03T05:46:29;20.90;42.80
23377;DHT22;14353;46.070;13.222;2023-04-03T05:48:55;20.90;42.80
23377;DHT22;14353;46.070;13.222;2023-04-03T05:51:28;20.90;42.80
23377;DHT22;14353;46.070;13.222;2023-04-03T05:54:03;20.90;42.50
23377;DHT22;14353;46.070;13.222;2023-04-03T05:56:31;20.90;42.80
23377;DHT22;14353;46.070;13.222;2023-04-03T05:58:57;20.90;42.80
23377;DHT22;14353;46.070;13.222;2023-04-03T06:01:22;20.90;42.50
23377;DHT22;14353;46.070;13.222;2023-04-03T06:03:48;20.90;42.00
23377;DHT22;14353;46.070;13.222;2023-04-03T06:06:14;21.00;42.20
23377;DHT22;14353;46.070;13.222;2023-04-03T06:08:40;21.00;41.90
23377;DHT22;14353;46.070;13.222;2023-04-03T06:11:06;20.90;41.50
23377;DHT22;14353;46.070;13.222;2023-04-03T06:13:34;21.00;41.90
23377;DHT22;14353;46.070;13.222;2023-04-03T06:16:00;21.00;42.20
23377;DHT22;14353;46.070;13.222;2023-04-03T06:18:26;21.00;41.90
23377;DHT22;14353;46.070;13.222;2023-04-03T06:20:52;21.00;41.60
23377;DHT22;14353;46.070;13.222;2023-04-03T06:23:17;21.00;41.50
23377;DHT22;14353;46.070;13.222;2023-04-03T06:25:43;21.00;41.60
23377;DHT22;14353;46.070;13.222;2023-04-03T06:28:09;21.00;41.30
23377;DHT22;14353;46.070;13.222;2023-04-03T06:30:36;21.00;40.90
23377;DHT22;14353;46.070;13.222;2023-04-03T06:33:02;21.00;40.50
23377;DHT22;14353;46.070;13.222;2023-04-03T06:35:28;21.00;40.50
23377;DHT22;14353;46.070;13.222;2023-04-03T06:37:56;21.00;40.00
23377;DHT22;14353;46.070;13.222;2023-04-03T06:40:24;21.00;39.60
23377;DHT22;14353;46.070;13.222;2023-04-03T06:42:51;21.00;39.50
23377;DHT22;14353;46.070;13.222;2023-04-03T06:45:17;21.00;39.70
23377;DHT22;14353;46.070;13.222;2023-04-03T06:47:43;21.00;39.50
23377;DHT22;14353;46.070;13.222;2023-04-03T06:50:10;21.10;39.60
23377;DHT22;14353;46.070;13.222;2023-04-03T06:52:37;21.10;39.70
23377;DHT22;14353;46.070;13.222;2023-04-03T06:55:03;21.10;39.70
23377;DHT22;14353;46.070;13.222;2023-04-03T06:57:29;21.10;39.80
23377;DHT22;14353;46.070;13.222;2023-04-03T06:59:55;21.10;39.50
23377;DHT22;14353;46.070;13.222;2023-04-03T07:02:22;21.10;39.40
23377;DHT22;14353;46.070;13.222;2023-04-03T07:04:48;21.10;39.50
23377;DHT22;14353;46.070;13.222;2023-04-03T07:07:16;21.20;40.20
23377;DHT22;14353;46.070;13.222;2023-04-03T07:09:43;21.20;40.00
23377;DHT22;14353;46.070;13.222;2023-04-03T07:12:08;21.20;39.40
23377;DHT22;14353;46.070;13.222;2023-04-03T07:14:34;21.20;39.10
23377;DHT22;14353;46.070;13.222;2023-04-03T07:17:00;21.20;38.60
23377;DHT22;14353;46.070;13.222;2023-04-03T07:19:26;21.20;38.90
23377;DHT22;14353;46.070;13.222;2023-04-03T07:21:53;21.20;39.00
23377;DHT22;14353;46.070;13.222;2023-04-03T07:24:20;21.20;38.90
23377;DHT22;14353;46.070;13.222;2023-04-03T07:26:50;21.30;38.80
23377;DHT22;14353;46.070;13.222;2023-04-03T07:29:16;21.30;38.70
23377;DHT22;14353;46.070;13.222;2023-04-03T07:31:42;21.20;38.50
23377;DHT22;14353;46.070;13.222;2023-04-03T07:34:07;21.20;38.40
23377;DHT22;14353;46.070;13.222;2023-04-03T07:36:33;21.30;38.30
23377;DHT22;14353;46.070;13.222;2023-04-03T07:38:59;21.30;38.30
23377;DHT22;14353;46.070;13.222;2023-04-03T07:41:24;21.30;38.20
23377;DHT22;14353;46.070;13.222;2023-04-03T07:43:50;21.30;38.10
23377;DHT22;14353;46.070;13.222;2023-04-03T07:46:17;21.30;38.10
23377;DHT22;14353;46.070;13.222;2023-04-03T07:48:43;21.30;38.70
23377;DHT22;14353;46.070;13.222;2023-04-03T07:51:09;21.30;38.20
23377;DHT22;14353;46.070;13.222;2023-04-03T07:53:36;21.40;38.20
23377;DHT22;14353;46.070;13.222;2023-04-03T07:56:01;21.40;37.70
23377;DHT22;14353;46.070;13.222;2023-04-03T07:58:29;21.40;37.50
23377;DHT22;14353;46.070;13.222;2023-04-03T08:00:55;21.40;37.90
23377;DHT22;14353;46.070;13.222;2023-04-03T08:03:21;21.40;37.80
23377;DHT22;14353;46.070;13.222;2023-04-03T08:05:48;21.40;38.20
23377;DHT22;14353;46.070;13.222;2023-04-03T08:08:17;21.40;38.00
23377;DHT22;14353;46.070;13.222;2023-04-03T08:10:43;21.50;38.30
23377;DHT22;14353;46.070;13.222;2023-04-03T08:13:09;21.50;38.30
23377;DHT22;14353;46.070;13.222;2023-04-03T08:15:35;21.50;38.90
23377;DHT22;14353;46.070;13.222;2023-04-03T08:18:02;21.50;38.80
23377;DHT22;14353;46.070;13.222;2023-04-03T08:20:28;21.50;38.50
23377;DHT22;14353;46.070;13.222;2023-04-03T08:22:54;21.60;38.30
23377;DHT22;14353;46.070;13.222;2023-04-03T08:25:20;21.60;37.80
23377;DHT22;14353;46.070;13.222;2023-04-03T08:27:45;21.60;37.70
23377;DHT22;14353;46.070;13.222;2023-04-03T08:30:12;21.60;37.30
23377;DHT22;14353;46.070;13.222;2023-04-03T08:32:38;21.60;37.10
23377;DHT22;14353;46.070;13.222;2023-04-03T08:35:04;21.60;36.60
23377;DHT22;14353;46.070;13.222;2023-04-03T08:37:30;21.60;36.60
23377;DHT22;14353;46.070;13.222;2023-04-03T08:39:56;21.60;36.30
23377;DHT22;14353;46.070;13.222;2023-04-03T08:45:27;21.60;36.10
23377;DHT22;14353;46.070;13.222;2023-04-03T08:50:36;21.70;37.40
23377;DHT22;14353;46.070;13.222;2023-04-03T08:53:04;21.80;38.00
23377;DHT22;14353;46.070;13.222;2023-04-03T08:55:40;21.80;38.40
23377;DHT22;14353;46.070;13.222;2023-04-03T08:58:33;21.80;38.40
23377;DHT22;14353;46.070;13.222;2023-04-03T09:01:05;21.90;38.60
23377;DHT22;14353;46.070;13.222;2023-04-03T09:03:34;21.90;38.40
23377;DHT22;14353;46.070;13.222;2023-04-03T09:08:45;22.00;38.30
23377;DHT22;14353;46.070;13.222;2023-04-03T09:14:18;22.00;38.70
23377;DHT22;14353;46.070;13.222;2023-04-03T09:17:03;22.00;38.50
23377;DHT22;14353;46.070;13.222;2023-04-03T09:19:45;22.10;38.30
23377;DHT22;14353;46.070;13.222;2023-04-03T09:22:25;22.10;37.80
23377;DHT22;14353;46.070;13.222;2023-04-03T09:25:03;22.10;38.10
23377;DHT22;14353;46.070;13.222;2023-04-03T09:27:29;22.10;38.60
23377;DHT22;14353;46.070;13.222;2023-04-03T09:29:56;22.20;38.60
23377;DHT22;14353;46.070;13.222;2023-04-03T09:32:31;22.20;38.60
23377;DHT22;14353;46.070;13.222;2023-04-03T09:35:04;22.20;38.40
23377;DHT22;14353;46.070;13.222;2023-04-03T09:37:42;22.20;38.60
23377;DHT22;14353;46.070;13.222;2023-04-03T09:40:28;22.20;38.20
23377;DHT22;14353;46.070;13.222;2023-04-03T09:45:42;22.30;38.50
23377;DHT22;14353;46.070;13.222;2023-04-03T09:48:12;22.30;38.10
23377;DHT22;14353;46.070;13.222;2023-04-03T09:50:59;22.30;38.20
23377;DHT22;14353;46.070;13.222;2023-04-03T09:53:33;22.30;38.10
23377;DHT22;14353;46.070;13.222;2023-04-03T09:56:00;22.30;37.70
23377;DHT22;14353;46.070;13.222;2023-04-03T09:58:32;22.30;38.40
23377;DHT22;14353;46.070;13.222;2023-04-03T10:01:00;22.30;37.10
23377;DHT22;14353;46.070;13.222;2023-04-03T10:03:35;22.30;36.70
23377;DHT22;14353;46.070;13.222;2023-04-03T10:06:03;22.30;36.60
23377;DHT22;14353;46.070;13.222;2023-04-03T10:08:34;22.30;36.10
23377;DHT22;14353;46.070;13.222;2023-04-03T10:11:15;22.30;35.80
23377;DHT22;14353;46.070;13.222;2023-04-03T10:14:01;22.30;35.70
23377;DHT22;14353;46.070;13.222;2023-04-03T10:16:39;22.30;35.60
23377;DHT22;14353;46.070;13.222;2023-04-03T10:21:45;22.30;35.00
23377;DHT22;14353;46.070;13.222;2023-04-03T10:24:23;22.30;35.10
23377;DHT22;14353;46.070;13.222;2023-04-03T10:29:45;22.30;33.70
23377;DHT22;14353;46.070;13.222;2023-04-03T10:35:06;22.20;33.20
23377;DHT22;14353;46.070;13.222;2023-04-03T10:38:01;22.20;33.50
23377;DHT22;14353;46.070;13.222;2023-04-03T10:41:10;22.30;33.20
23377;DHT22;14353;46.070;13.222;2023-04-03T10:44:06;22.30;32.80
23377;DHT22;14353;46.070;13.222;2023-04-03T10:46:41;22.30;32.70
23377;DHT22;14353;46.070;13.222;2023-04-03T10:52:13;22.40;34.70
23377;DHT22;14353;46.070;13.222;2023-04-03T10:57:12;22.60;35.10
23377;DHT22;14353;46.070;13.222;2023-04-03T10:59:46;22.60;34.50
23377;DHT22;14353;46.070;13.222;2023-04-03T11:04:55;22.70;34.40
23377;DHT22;14353;46.070;13.222;2023-04-03T11:07:33;22.70;34.30
23377;DHT22;14353;46.070;13.222;2023-04-03T11:10:09;22.80;34.60
23377;DHT22;14353;46.070;13.222;2023-04-03T11:12:43;22.80;35.40
23377;DHT22;14353;46.070;13.222;2023-04-03T11:15:18;22.80;33.70
23377;DHT22;14353;46.070;13.222;2023-04-03T11:18:09;22.70;32.70
23377;DHT22;14353;46.070;13.222;2023-04-03T11:20:37;22.70;32.50
23377;DHT22;14353;46.070;13.222;2023-04-03T11:25:39;22.70;32.80
23377;DHT22;14353;46.070;13.222;2023-04-03T11:28:12;22.70;32.00
23377;DHT22;14353;46.070;13.222;2023-04-03T11:31:01;22.70;31.00
23377;DHT22;14353;46.070;13.222;2023-04-03T11:36:19;22.60;31.20
23377;DHT22;14353;46.070;13.222;2023-04-03T11:38:49;22.70;31.40
23377;DHT22;14353;46.070;13.222;2023-04-03T11:41:28;22.70;31.20
23377;DHT22;14353;46.070;13.222;2023-04-03T11:44:01;22.70;31.20
23377;DHT22;14353;46.070;13.222;2023-04-03T11:49:52;22.70;30.00
23377;DHT22;14353;46.070;13.222;2023-04-03T12:16:33;23.20;30.80
23377;DHT22;14353;46.070;13.222;2023-04-03T12:26:38;23.30;30.70
23377;DHT22;14353;46.070;13.222;2023-04-03T12:31:58;23.40;30.30
23377;DHT22;14353;46.070;13.222;2023-04-03T12:45:21;23.60;30.30
23377;DHT22;14353;46.070;13.222;2023-04-03T12:47:49;23.60;30.00
23377;DHT22;14353;46.070;13.222;2023-04-03T12:50:30;23.70;30.40
23377;DHT22;14353;46.070;13.222;2023-04-03T12:53:05;23.70;30.20
23377;DHT22;14353;46.070;13.222;2023-04-03T12:55:32;23.70;30.00
23377;DHT22;14353;46.070;13.222;2023-04-03T12:58:16;23.80;29.80
23377;DHT22;14353;46.070;13.222;2023-04-03T13:00:46;23.80;30.00
23377;DHT22;14353;46.070;13.222;2023-04-03T13:03:25;23.90;29.90
23377;DHT22;14353;46.070;13.222;2023-04-03T13:06:00;23.90;30.00
23377;DHT22;14353;46.070;13.222;2023-04-03T13:08:27;23.90;29.80
23377;DHT22;14353;46.070;13.222;2023-04-03T13:10:54;23.90;30.00
23377;DHT22;14353;46.070;13.222;2023-04-03T13:13:20;23.90;29.00
23377;DHT22;14353;46.070;13.222;2023-04-03T13:15:49;23.80;28.80
23377;DHT22;14353;46.070;13.222;2023-04-03T13:18:31;23.80;28.80
23377;DHT22;14353;46.070;13.222;2023-04-03T13:21:01;23.80;29.20
23377;DHT22;14353;46.070;13.222;2023-04-03T13:23:28;23.80;29.40
23377;DHT22;14353;46.070;13.222;2023-04-03T13:25:55;23.80;29.40
23377;DHT22;14353;46.070;13.222;2023-04-03T13:28:24;23.80;29.60
23377;DHT22;14353;46.070;13.222;2023-04-03T13:31:17;23.80;29.80
23377;DHT22;14353;46.070;13.222;2023-04-03T13:33:55;23.80;29.80
23377;DHT22;14353;46.070;13.222;2023-04-03T13:36:37;23.80;29.90
23377;DHT22;14353;46.070;13.222;2023-04-03T13:41:47;23.80;30.00
23377;DHT22;14353;46.070;13.222;2023-04-03T13:46:47;23.80;30.30
23377;DHT22;14353;46.070;13.222;2023-04-03T13:51:46;23.90;30.40
23377;DHT22;14353;46.070;13.222;2023-04-03T13:56:53;23.90;31.10
23377;DHT22;14353;46.070;13.222;2023-04-03T13:59:34;23.90;30.30
23377;DHT22;14353;46.070;13.222;2023-04-03T14:04:33;23.90;30.40
23377;DHT22;14353;46.070;13.222;2023-04-03T14:07:13;24.00;30.50
23377;DHT22;14353;46.070;13.222;2023-04-03T14:09:39;24.00;30.50
23377;DHT22;14353;46.070;13.222;2023-04-03T14:12:17;24.00;30.70
23377;DHT22;14353;46.070;13.222;2023-04-03T14:14:45;24.00;30.50
23377;DHT22;14353;46.070;13.222;2023-04-03T14:17:18;24.00;30.60
23377;DHT22;14353;46.070;13.222;2023-04-03T14:19:45;24.10;30.70
23377;DHT22;14353;46.070;13.222;2023-04-03T14:24:40;24.10;30.70
23377;DHT22;14353;46.070;13.222;2023-04-03T14:27:15;24.10;30.70
23377;DHT22;14353;46.070;13.222;2023-04-03T14:29:41;24.10;30.80
23377;DHT22;14353;46.070;13.222;2023-04-03T14:32:09;24.10;30.90
23377;DHT22;14353;46.070;13.222;2023-04-03T14:34:36;24.10;30.90
23377;DHT22;14353;46.070;13.222;2023-04-03T14:37:01;24.10;30.90
23377;DHT22;14353;46.070;13.222;2023-04-03T14:39:27;24.10;31.00
23377;DHT22;14353;46.070;13.222;2023-04-03T14:41:53;24.10;31.00
23377;DHT22;14353;46.070;13.222;2023-04-03T14:44:19;24.10;31.00
23377;DHT22;14353;46.070;13.222;2023-04-03T14:46:44;24.10;31.00
23377;DHT22;14353;46.070;13.222;2023-04-03T14:49:20;24.10;31.10
23377;DHT22;14353;46.070;13.222;2023-04-03T14:51:47;24.10;31.20
23377;DHT22;14353;46.070;13.222;2023-04-03T14:54:15;24.10;31.00
23377;DHT22;14353;46.070;13.222;2023-04-03T14:56:41;24.20;31.10
23377;DHT22;14353;46.070;13.222;2023-04-03T14:59:14;24.10;31.10
23377;DHT22;14353;46.070;13.222;2023-04-03T15:01:41;24.20;31.20
23377;DHT22;14353;46.070;13.222;2023-04-03T15:04:18;24.20;31.40
23377;DHT22;14353;46.070;13.222;2023-04-03T15:06:45;24.20;31.30
23377;DHT22;14353;46.070;13.222;2023-04-03T15:09:23;24.20;31.40
23377;DHT22;14353;46.070;13.222;2023-04-03T15:11:51;24.20;31.30
23377;DHT22;14353;46.070;13.222;2023-04-03T15:14:17;24.20;31.40
23377;DHT22;14353;46.070;13.222;2023-04-03T15:16:43;24.20;31.40
23377;DHT22;14353;46.070;13.222;2023-04-03T15:19:09;24.20;31.40
23377;DHT22;14353;46.070;13.222;2023-04-03T15:21:35;24.20;31.40
23377;DHT22;14353;46.070;13.222;2023-04-03T15:24:01;24.20;31.40
23377;DHT22;14353;46.070;13.222;2023-04-03T15:26:27;24.30;31.60
23377;DHT22;14353;46.070;13.222;2023-04-03T15:28:53;24.30;31.50
23377;DHT22;14353;46.070;13.222;2023-04-03T15:31:18;24.30;31.60
23377;DHT22;14353;46.070;13.222;2023-04-03T15:33:44;24.30;31.60
23377;DHT22;14353;46.070;13.222;2023-04-03T15:36:10;24.30;31.60
23377;DHT22;14353;46.070;13.222;2023-04-03T15:38:36;24.30;31.60
23377;DHT22;14353;46.070;13.222;2023-04-03T15:41:03;24.30;31.60
23377;DHT22;14353;46.070;13.222;2023-04-03T15:43:29;24.30;31.60
23377;DHT22;14353;46.070;13.222;2023-04-03T15:45:59;24.30;31.70
23377;DHT22;14353;46.070;13.222;2023-04-03T15:48:26;24.30;31.70
23377;DHT22;14353;46.070;13.222;2023-04-03T15:50:52;24.30;31.70
23377;DHT22;14353;46.070;13.222;2023-04-03T15:53:18;24.30;31.80
23377;DHT22;14353;46.070;13.222;2023-04-03T15:55:44;24.30;31.80
23377;DHT22;14353;46.070;13.222;2023-04-03T15:58:09;24.30;31.80
23377;DHT22;14353;46.070;13.222;2023-04-03T16:00:36;24.30;31.80
23377;DHT22;14353;46.070;13.222;2023-04-03T16:03:09;24.30;31.80
23377;DHT22;14353;46.070;13.222;2023-04-03T16:05:36;24.30;31.80
23377;DHT22;14353;46.070;13.222;2023-04-03T16:08:03;24.30;31.80
23377;DHT22;14353;46.070;13.222;2023-04-03T16:10:31;24.30;31.90
23377;DHT22;14353;46.070;13.222;2023-04-03T16:12:56;24.30;31.90
23377;DHT22;14353;46.070;13.222;2023-04-03T16:15:23;24.40;32.00
23377;DHT22;14353;46.070;13.222;2023-04-03T16:17:50;24.30;31.90
23377;DHT22;14353;46.070;13.222;2023-04-03T16:20:16;24.30;32.00
23377;DHT22;14353;46.070;13.222;2023-04-03T16:22:43;24.30;32.00
23377;DHT22;14353;46.070;13.222;2023-04-03T16:25:09;24.30;32.00
23377;DHT22;14353;46.070;13.222;2023-04-03T16:27:35;24.30;32.00
23377;DHT22;14353;46.070;13.222;2023-04-03T16:30:01;24.30;32.00
23377;DHT22;14353;46.070;13.222;2023-04-03T16:32:29;24.30;32.00
23377;DHT22;14353;46.070;13.222;2023-04-03T16:34:57;24.30;32.00
23377;DHT22;14353;46.070;13.222;2023-04-03T16:37:23;24.30;32.10
23377;DHT22;14353;46.070;13.222;2023-04-03T16:39:48;24.30;32.10
23377;DHT22;14353;46.070;13.222;2023-04-03T16:42:14;24.30;32.10
23377;DHT22;14353;46.070;13.222;2023-04-03T16:44:41;24.30;32.20
23377;DHT22;14353;46.070;13.222;2023-04-03T16:47:07;24.30;32.30
23377;DHT22;14353;46.070;13.222;2023-04-03T16:49:33;24.20;32.20
23377;DHT22;14353;46.070;13.222;2023-04-03T16:52:03;24.20;32.20
23377;DHT22;14353;46.070;13.222;2023-04-03T16:54:30;24.20;32.20
23377;DHT22;14353;46.070;13.222;2023-04-03T16:56:56;24.20;32.30
23377;DHT22;14353;46.070;13.222;2023-04-03T16:59:22;24.20;32.20
23377;DHT22;14353;46.070;13.222;2023-04-03T17:01:48;24.20;32.40
23377;DHT22;14353;46.070;13.222;2023-04-03T17:04:13;24.20;32.50
23377;DHT22;14353;46.070;13.222;2023-04-03T17:06:39;24.10;32.40
23377;DHT22;14353;46.070;13.222;2023-04-03T17:09:05;24.10;32.50
23377;DHT22;14353;46.070;13.222;2023-04-03T17:11:32;24.10;32.50
23377;DHT22;14353;46.070;13.222;2023-04-03T17:13:58;24.10;32.60
23377;DHT22;14353;46.070;13.222;2023-04-03T17:16:24;24.00;32.70
23377;DHT22;14353;46.070;13.222;2023-04-03T17:18:52;24.00;32.70